Airfield :
LOGIN :

Register | Disclaimer

   EN    FR    IT 

 










Legend :    VFR   Marginal VFR   IFR   Intensive IFR   Very Intensive IFR
Visi :
Ceiling :
>= 8 km
>= 3000ft
5 to 8 km
1000 to 3000 ft
1500m to 5 km
500 to 1000 ft
800 to 1500m
200 to 500 ft
< 800m
< 200 ft
Symbols :   Thunderstorms  Fog  Heavy snow  Heavy precipitations  Wind > 20 kt
SIGMETs :     Misc.  Thunderstorms  Icing  Turbulence  Mountain Waves  Volcanic Ashes







- Airport Elevation : 325 ft
- IATA code : BES
- Download approach charts


LFRB - Brest

CURRENT METAR :
  • 160630Z AUTO 03008KT 360V060 0800 0750 R25/1400D R07/0900U FG VV/// 14/13 Q1023 TEMPO 3000 BR OVC002

EXPIRED METARs :
  • 160600Z AUTO 01008KT 2000 1300 R25/1800D R07/P2000 -DZ BR VV/// 14/13 Q1023 TEMPO 3000 BR OVC002
  • 160530Z AUTO 01009KT 9999 OVC005 14/13 Q1023 TEMPO 3000 BR
  • 160500Z AUTO 02006KT 9999 OVC008 13/12 Q1023 TEMPO 3000 BR OVC002
  • 160430Z AUTO 03004KT 9999 OVC009 13/12 Q1023 TEMPO 3000 BR OVC002
  • 160400Z AUTO 02007KT 350V050 9999 OVC009 14/12 Q1023 TEMPO 3000 BR OVC002

TAF TAF LFRB
Valid from the 16 at 06:00 until the 17 at 12:00 UTC


160500Z 1606/1712 03005KT 9999 OVC009
TEMPO 1606/1609 3000 BR OVC002
BECMG 1609/1610 SCT025
BECMG 1621/1624 BKN006
BECMG 1710/1712 SCT020
ATIS : +33 2 98 32 02 71
No reported NOTAMs for that airfield.



MET'MAP, your aeronautical weather chart ! - Copyright ORBIFLY December 2007 - Disclaimer

ORBIFLY MET'MAP TEAM :

Programming & Development : Alexandra Zaïnal
Concept & Development : Baudouin d'Aumeries
Co-Development & Prog : Marc-Olivier Méhu
Technical & hardware support : Manuel Goepfert

Contact : metmap@orbifly.com




SOURCES & CREDITS :

   NOAA